Time;durP1;ratioP1;P1;durP2;ratioP2;P2;SDS_P1;SDS_P2;PMS_P1;PMS_P2;Temp;Humidity;BMP_temperature;BMP_pressure;BME280_temperature;BME280_humidity;BME280_pressure;Samples;Min_cycle;Max_cycle;Signal;HPM_P1;HPM_P2
2024/01/25 00:01:59;;;;;;;1.00;0.70;;;8.50;99.90;;;;;;4414885;32;20494;-60
2024/01/25 00:04:24;;;;;;;24.08;1.33;;;8.50;99.90;;;;;;4417774;32;20065;-60
2024/01/25 00:06:50;;;;;;;2.67;1.50;;;8.50;99.90;;;;;;4410314;32;20093;-60
2024/01/25 00:09:15;;;;;;;0.62;0.62;;;8.50;99.90;;;;;;4413772;32;20094;-59
2024/01/25 00:11:42;;;;;;;2.08;1.65;;;8.40;99.90;;;;;;4417036;32;20572;-60
2024/01/25 00:14:08;;;;;;;4.95;2.60;;;8.40;99.90;;;;;;4402314;32;20073;-62
2024/01/25 00:16:33;;;;;;;0.82;0.82;;;8.40;99.90;;;;;;4416719;32;20456;-60
2024/01/25 00:18:59;;;;;;;4.75;1.55;;;8.50;99.90;;;;;;4420658;32;20084;-60
2024/01/25 00:21:24;;;;;;;14.20;0.82;;;8.50;99.90;;;;;;4417887;32;20077;-62
2024/01/25 00:23:49;;;;;;;4.90;1.23;;;8.50;99.90;;;;;;4412928;32;20074;-59
2024/01/25 00:26:15;;;;;;;8.85;2.15;;;8.50;99.90;;;;;;4414770;32;20085;-63
2024/01/25 00:28:40;;;;;;;2.50;1.08;;;8.40;99.90;;;;;;4414345;32;20517;-63
2024/01/25 00:31:06;;;;;;;5.28;0.50;;;8.40;99.90;;;;;;4418849;32;20085;-63
2024/01/25 00:33:31;;;;;;;3.65;1.85;;;8.40;99.90;;;;;;4417701;32;20081;-62
2024/01/25 00:35:57;;;;;;;3.70;0.43;;;8.40;99.90;;;;;;4416501;32;20090;-62
2024/01/25 00:38:23;;;;;;;22.62;1.30;;;8.50;99.90;;;;;;4410673;32;20070;-66
2024/01/25 00:40:48;;;;;;;6.60;0.43;;;8.50;99.90;;;;;;4417414;32;20060;-63
2024/01/25 00:43:14;;;;;;;1.10;0.90;;;8.50;99.90;;;;;;4414197;32;20080;-63
2024/01/25 00:45:40;;;;;;;0.88;0.60;;;8.50;99.90;;;;;;4417185;32;20070;-63
2024/01/25 00:48:06;;;;;;;4.43;0.95;;;8.50;99.90;;;;;;4416600;32;20098;-59
2024/01/25 00:50:31;;;;;;;3.78;1.62;;;8.50;99.90;;;;;;4413856;32;20069;-60
2024/01/25 00:52:57;;;;;;;0.75;0.55;;;8.50;99.90;;;;;;4414010;32;20505;-60
2024/01/25 00:55:23;;;;;;;0.30;0.30;;;8.50;99.90;;;;;;4414101;32;20074;-59
2024/01/25 00:57:48;;;;;;;0.98;0.70;;;8.50;99.90;;;;;;4411756;32;20069;-59
2024/01/25 01:00:14;;;;;;;3.87;1.23;;;8.50;99.90;;;;;;4414161;32;20085;-59
2024/01/25 01:02:43;;;;;;;0.82;0.55;;;8.50;99.90;;;;;;4415560;32;20132;-59
2024/01/25 01:05:09;;;;;;;0.95;0.85;;;8.50;99.90;;;;;;4413957;32;20094;-59
2024/01/25 01:07:35;;;;;;;12.32;0.98;;;8.50;99.90;;;;;;4412070;32;20429;-59
2024/01/25 01:10:01;;;;;;;4.47;1.85;;;8.50;99.90;;;;;;4414042;32;20077;-61
2024/01/25 01:12:26;;;;;;;0.62;0.62;;;8.50;99.90;;;;;;4411959;32;20077;-61
2024/01/25 01:14:52;;;;;;;0.80;0.40;;;8.50;99.90;;;;;;4414262;32;20086;-61
2024/01/25 01:17:18;;;;;;;4.40;1.02;;;8.50;99.90;;;;;;4413592;32;20081;-62
2024/01/25 01:19:44;;;;;;;2.60;1.83;;;8.50;99.90;;;;;;4410426;32;20542;-61
2024/01/25 01:22:09;;;;;;;1.33;1.00;;;8.50;99.90;;;;;;4412077;32;20065;-60
2024/01/25 01:24:35;;;;;;;31.65;0.85;;;8.50;99.90;;;;;;4412463;32;20073;-61
2024/01/25 01:27:00;;;;;;;2.55;0.65;;;8.50;99.90;;;;;;4399139;32;20113;-61
2024/01/25 01:29:27;;;;;;;1.00;0.82;;;8.50;99.90;;;;;;4411064;32;20114;-60
2024/01/25 01:31:52;;;;;;;4.43;2.17;;;8.50;99.90;;;;;;4414227;32;20092;-61
2024/01/25 01:34:17;;;;;;;6.60;1.75;;;8.50;99.90;;;;;;4412214;32;20062;-61
2024/01/25 01:36:43;;;;;;;1.10;1.05;;;8.50;99.90;;;;;;4413695;32;20551;-61
2024/01/25 01:39:09;;;;;;;0.93;0.75;;;8.60;99.90;;;;;;4409443;32;20081;-62
2024/01/25 01:41:34;;;;;;;4.87;2.10;;;8.50;99.90;;;;;;4410288;32;20081;-64
2024/01/25 01:44:01;;;;;;;4.82;1.70;;;8.60;99.90;;;;;;4409754;32;20534;-61
2024/01/25 01:46:39;;;;;;;2.00;0.95;;;8.60;99.90;;;;;;4412042;32;20144;-62
2024/01/25 01:49:07;;;;;;;0.52;0.43;;;8.50;99.90;;;;;;4415122;32;20109;-61
2024/01/25 01:51:32;;;;;;;3.20;1.77;;;8.50;99.90;;;;;;4413341;32;20458;-60
2024/01/25 01:54:00;;;;;;;0.68;0.68;;;8.50;99.90;;;;;;4399601;32;20082;-61
2024/01/25 01:56:28;;;;;;;5.18;1.05;;;8.50;99.90;;;;;;4410320;32;20132;-61
2024/01/25 01:58:56;;;;;;;0.55;0.55;;;8.50;99.90;;;;;;4416000;32;20544;-61
2024/01/25 02:01:21;;;;;;;0.62;0.62;;;8.50;99.90;;;;;;4401065;32;20069;-61
2024/01/25 02:03:47;;;;;;;2.97;0.80;;;8.50;99.90;;;;;;4413194;32;20141;-61
2024/01/25 02:06:12;;;;;;;2.85;1.75;;;8.50;99.90;;;;;;4413444;32;20089;-64
2024/01/25 02:08:38;;;;;;;0.60;0.60;;;8.40;99.90;;;;;;4413221;32;20131;-64
2024/01/25 02:11:04;;;;;;;0.95;0.75;;;8.40;99.90;;;;;;4414172;32;20426;-63
2024/01/25 02:13:29;;;;;;;0.30;0.30;;;8.40;99.90;;;;;;4410068;32;20073;-64
2024/01/25 02:15:55;;;;;;;4.55;1.05;;;8.40;99.90;;;;;;4412319;32;20073;-63
2024/01/25 02:18:20;;;;;;;0.65;0.65;;;8.40;99.90;;;;;;4415534;32;20085;-63
2024/01/25 02:20:46;;;;;;;21.83;1.25;;;8.40;99.90;;;;;;4411161;32;20089;-63
2024/01/25 02:23:11;;;;;;;19.37;0.70;;;8.50;99.90;;;;;;4410973;32;20107;-67
2024/01/25 02:25:37;;;;;;;0.47;0.47;;;8.50;99.90;;;;;;4412983;32;20169;-67
2024/01/25 02:28:02;;;;;;;0.60;0.60;;;8.50;99.90;;;;;;4414052;32;20068;-64
2024/01/25 02:30:28;;;;;;;0.45;0.45;;;8.50;99.90;;;;;;4409270;32;20068;-64
2024/01/25 02:32:53;;;;;;;0.40;0.40;;;8.50;99.90;;;;;;4411081;32;20082;-64
2024/01/25 02:35:19;;;;;;;3.22;1.33;;;8.50;99.90;;;;;;4415005;32;20077;-64
2024/01/25 02:37:44;;;;;;;0.40;0.40;;;8.50;99.90;;;;;;4410301;32;20089;-64
2024/01/25 02:40:10;;;;;;;0.75;0.55;;;8.50;99.90;;;;;;4413755;32;20469;-65
2024/01/25 02:42:36;;;;;;;5.80;1.62;;;8.50;99.90;;;;;;4409937;32;20086;-64
2024/01/25 02:45:01;;;;;;;0.77;0.77;;;8.40;99.90;;;;;;4413341;32;20081;-64
2024/01/25 02:47:27;;;;;;;3.62;0.98;;;8.50;99.90;;;;;;4413116;32;20493;-64
2024/01/25 02:49:52;;;;;;;0.88;0.75;;;8.40;99.90;;;;;;4398586;32;20093;-64
2024/01/25 02:52:18;;;;;;;4.18;0.57;;;8.40;99.90;;;;;;4408299;32;20111;-63
2024/01/25 02:54:43;;;;;;;0.60;0.60;;;8.40;99.90;;;;;;4414599;32;20074;-64
2024/01/25 02:57:10;;;;;;;0.60;0.60;;;8.40;99.90;;;;;;4403266;32;20061;-64
2024/01/25 02:59:35;;;;;;;3.40;0.88;;;8.30;99.90;;;;;;4414408;32;20119;-64
2024/01/25 03:02:00;;;;;;;2.85;1.20;;;8.40;99.90;;;;;;4414351;32;20587;-63
2024/01/25 03:04:26;;;;;;;0.40;0.40;;;8.40;99.90;;;;;;4415752;32;20090;-65
2024/01/25 03:06:51;;;;;;;1.62;1.20;;;8.30;99.90;;;;;;4417842;32;20089;-65
2024/01/25 03:09:17;;;;;;;1.37;0.85;;;8.30;99.90;;;;;;4415869;32;20072;-63
2024/01/25 03:11:42;;;;;;;0.45;0.45;;;8.40;99.90;;;;;;4416660;32;20717;-64
2024/01/25 03:14:08;;;;;;;2.08;1.20;;;8.40;99.90;;;;;;4413782;32;20073;-64
2024/01/25 03:16:33;;;;;;;0.82;0.82;;;8.40;99.90;;;;;;4413626;32;20089;-61
2024/01/25 03:18:59;;;;;;;0.30;0.30;;;8.40;99.90;;;;;;4412752;32;20089;-61
2024/01/25 03:21:24;;;;;;;10.98;2.45;;;8.40;99.90;;;;;;4416560;32;20081;-61
2024/01/25 03:23:50;;;;;;;0.30;0.30;;;8.40;99.90;;;;;;4412622;32;20077;-61
2024/01/25 03:26:16;;;;;;;0.37;0.37;;;8.30;99.90;;;;;;4416838;32;20065;-63
2024/01/25 03:28:41;;;;;;;0.62;0.62;;;8.30;99.90;;;;;;4412212;32;20072;-62
2024/01/25 03:31:07;;;;;;;1.73;1.15;;;8.30;99.90;;;;;;4412436;32;20560;-63
2024/01/25 03:33:32;;;;;;;6.80;0.77;;;8.40;99.90;;;;;;4417974;32;20074;-63
2024/01/25 03:36:02;;;;;;;0.20;0.20;;;8.30;99.90;;;;;;4415272;32;20132;-63
2024/01/25 03:38:28;;;;;;;0.73;0.65;;;8.30;99.90;;;;;;4415389;32;20537;-63
2024/01/25 03:40:54;;;;;;;4.72;1.67;;;8.40;99.90;;;;;;4395936;32;20082;-64
2024/01/25 03:43:19;;;;;;;0.20;0.20;;;8.40;99.90;;;;;;4399579;32;20138;-63
2024/01/25 03:45:45;;;;;;;14.52;1.12;;;8.30;99.90;;;;;;4414614;32;20089;-63
2024/01/25 03:48:10;;;;;;;7.82;1.40;;;8.30;99.90;;;;;;4415969;32;20901;-63
2024/01/25 03:50:35;;;;;;;5.57;1.40;;;8.30;99.90;;;;;;4415805;32;20077;-63
2024/01/25 03:53:01;;;;;;;4.05;1.62;;;8.30;99.90;;;;;;4410361;32;20081;-63
2024/01/25 03:55:26;;;;;;;0.52;0.52;;;8.30;99.90;;;;;;4415223;32;20335;-63
2024/01/25 03:57:52;;;;;;;1.27;0.60;;;8.30;99.90;;;;;;4418177;32;21401;-63
2024/01/25 04:00:18;;;;;;;6.75;0.75;;;8.20;99.90;;;;;;4413211;32;20554;-63
2024/01/25 04:02:43;;;;;;;0.30;0.30;;;8.20;99.90;;;;;;4411789;32;20073;-63
2024/01/25 04:05:09;;;;;;;2.47;1.17;;;8.20;99.90;;;;;;4412090;32;20207;-62
2024/01/25 04:07:35;;;;;;;3.00;1.48;;;8.20;99.90;;;;;;4413633;32;20081;-62
2024/01/25 04:10:01;;;;;;;3.42;1.27;;;8.10;99.90;;;;;;4401928;32;20125;-63
2024/01/25 04:12:27;;;;;;;3.78;1.58;;;8.10;99.90;;;;;;4413770;32;20090;-62
2024/01/25 04:14:52;;;;;;;2.28;0.88;;;8.10;99.90;;;;;;4413668;32;20131;-63
2024/01/25 04:17:17;;;;;;;0.57;0.57;;;8.10;99.90;;;;;;4415200;32;20088;-62
2024/01/25 04:19:43;;;;;;;1.15;0.73;;;8.10;99.90;;;;;;4414426;32;20737;-62
2024/01/25 04:22:08;;;;;;;5.05;1.45;;;8.10;99.90;;;;;;4414932;32;20086;-61
2024/01/25 04:24:34;;;;;;;6.37;1.08;;;8.20;99.90;;;;;;4413257;32;20132;-64
2024/01/25 04:26:59;;;;;;;0.57;0.50;;;8.10;99.90;;;;;;4413988;32;20073;-62
2024/01/25 04:29:25;;;;;;;0.85;0.70;;;8.10;99.90;;;;;;4412213;32;20058;-61
2024/01/25 04:31:50;;;;;;;2.53;1.15;;;8.10;99.90;;;;;;4399383;32;20162;-60
2024/01/25 04:34:16;;;;;;;0.75;0.75;;;8.10;99.90;;;;;;4411890;32;20427;-60
2024/01/25 04:36:42;;;;;;;1.08;0.35;;;8.10;99.90;;;;;;4413276;32;20440;-60
2024/01/25 04:39:07;;;;;;;1.40;0.82;;;8.10;99.90;;;;;;4398803;32;20074;-62
2024/01/25 04:41:33;;;;;;;2.30;0.98;;;8.10;99.90;;;;;;4415773;32;20148;-63
2024/01/25 04:43:58;;;;;;;1.17;1.10;;;8.10;99.90;;;;;;4414052;32;20077;-63
2024/01/25 04:46:24;;;;;;;0.40;0.40;;;8.00;99.90;;;;;;4413290;32;20064;-62
2024/01/25 04:48:49;;;;;;;2.47;0.77;;;8.10;99.90;;;;;;4414324;32;20066;-65
2024/01/25 04:51:16;;;;;;;0.30;0.30;;;8.10;99.90;;;;;;4415113;32;20090;-64
2024/01/25 04:53:42;;;;;;;0.65;0.65;;;8.20;99.90;;;;;;4413082;32;20077;-64
2024/01/25 04:56:07;;;;;;;33.42;0.62;;;8.10;99.90;;;;;;4396810;32;21359;-63
2024/01/25 04:58:33;;;;;;;9.60;0.95;;;8.20;99.90;;;;;;4414341;32;20128;-63
2024/01/25 05:00:59;;;;;;;0.43;0.43;;;8.10;99.90;;;;;;4415737;32;20177;-63
2024/01/25 05:03:25;;;;;;;4.95;2.25;;;8.10;99.90;;;;;;4415933;32;20080;-63
2024/01/25 05:05:50;;;;;;;7.43;1.30;;;8.00;99.90;;;;;;4407903;32;20077;-61
2024/01/25 05:08:16;;;;;;;0.50;0.50;;;8.00;99.90;;;;;;4418453;32;20077;-61
2024/01/25 05:10:41;;;;;;;0.60;0.60;;;8.00;99.90;;;;;;4402617;32;20123;-61
2024/01/25 05:13:09;;;;;;;4.15;1.12;;;8.00;99.90;;;;;;4401590;32;20093;-61
2024/01/25 05:15:34;;;;;;;0.93;0.93;;;8.00;99.90;;;;;;4415925;32;20073;-61
2024/01/25 05:18:00;;;;;;;0.47;0.47;;;8.00;99.90;;;;;;4415786;32;20151;-62
2024/01/25 05:20:31;;;;;;;1.45;0.93;;;8.00;99.90;;;;;;4412585;32;20490;-61
2024/01/25 05:22:57;;;;;;;0.40;0.40;;;8.00;99.90;;;;;;4408487;32;20799;-62
2024/01/25 05:25:23;;;;;;;0.40;0.40;;;8.00;99.90;;;;;;4412896;32;20065;-63
2024/01/25 05:27:48;;;;;;;0.30;0.30;;;8.00;99.90;;;;;;4414637;32;20406;-60
2024/01/25 05:30:14;;;;;;;5.37;1.75;;;8.00;99.90;;;;;;4414641;32;20161;-60
2024/01/25 05:32:39;;;;;;;0.62;0.62;;;8.00;99.90;;;;;;4415408;32;20123;-60
2024/01/25 05:35:06;;;;;;;1.83;0.93;;;8.00;99.90;;;;;;4414620;32;20134;-60
2024/01/25 05:37:32;;;;;;;0.30;0.30;;;8.00;99.90;;;;;;4403408;32;20501;-60
2024/01/25 05:39:57;;;;;;;0.30;0.30;;;8.00;99.90;;;;;;4419847;32;20076;-59
2024/01/25 05:42:23;;;;;;;1.48;0.75;;;8.00;99.90;;;;;;4413293;32;20073;-60
2024/01/25 05:44:48;;;;;;;4.47;0.65;;;8.00;99.90;;;;;;4413694;32;20142;-60
2024/01/25 05:47:14;;;;;;;29.05;1.05;;;8.00;99.90;;;;;;4415688;32;20077;-60
2024/01/25 05:49:40;;;;;;;0.30;0.30;;;8.00;99.90;;;;;;4417642;32;20081;-60
2024/01/25 05:52:05;;;;;;;8.55;2.75;;;8.00;99.90;;;;;;4409540;32;20089;-59
2024/01/25 05:54:31;;;;;;;0.30;0.30;;;8.00;99.90;;;;;;4411968;32;20073;-60
2024/01/25 05:56:56;;;;;;;0.62;0.62;;;8.00;99.90;;;;;;4416693;32;20081;-60
2024/01/25 05:59:22;;;;;;;0.50;0.50;;;7.90;99.90;;;;;;4415069;32;20085;-60
2024/01/25 06:01:47;;;;;;;0.32;0.32;;;7.90;99.90;;;;;;4411398;32;20172;-60
2024/01/25 06:04:13;;;;;;;2.67;1.12;;;7.90;99.90;;;;;;4414113;32;20098;-60
2024/01/25 06:06:38;;;;;;;1.33;0.93;;;8.00;99.90;;;;;;4393041;32;20109;-60
2024/01/25 06:09:05;;;;;;;0.57;0.57;;;8.00;99.90;;;;;;4410671;32;20180;-60
2024/01/25 06:11:33;;;;;;;0.30;0.30;;;8.00;99.90;;;;;;4408163;32;20069;-60
2024/01/25 06:13:58;;;;;;;0.75;0.65;;;8.00;99.90;;;;;;4382871;32;20097;-59
2024/01/25 06:16:24;;;;;;;0.37;0.37;;;8.00;99.90;;;;;;4404048;32;20093;-61
2024/01/25 06:18:49;;;;;;;0.40;0.40;;;8.00;99.90;;;;;;4405712;32;20078;-60
2024/01/25 06:21:15;;;;;;;2.80;0.77;;;8.00;99.90;;;;;;4391971;32;21021;-60
2024/01/25 06:23:41;;;;;;;0.30;0.30;;;7.90;99.90;;;;;;4403587;32;20073;-60
2024/01/25 06:26:06;;;;;;;0.50;0.50;;;7.90;99.90;;;;;;4387892;32;20129;-61
2024/01/25 06:28:32;;;;;;;1.73;0.82;;;7.90;99.90;;;;;;4383478;32;20538;-59
2024/01/25 06:31:01;;;;;;;0.57;0.57;;;8.00;99.90;;;;;;4402922;32;20230;-59
2024/01/25 06:33:27;;;;;;;1.95;0.95;;;8.00;99.90;;;;;;4397770;32;20089;-60
2024/01/25 06:35:53;;;;;;;6.43;1.60;;;7.90;99.90;;;;;;4399729;32;20892;-60
2024/01/25 06:38:19;;;;;;;1.40;1.00;;;7.90;99.90;;;;;;4389491;32;20098;-60
2024/01/25 06:40:44;;;;;;;11.55;1.40;;;7.90;99.90;;;;;;4404651;32;20680;-60
2024/01/25 06:43:11;;;;;;;0.88;0.88;;;8.00;99.90;;;;;;4405234;32;20097;-61
2024/01/25 06:45:39;;;;;;;2.30;0.70;;;7.90;99.90;;;;;;4398149;32;21591;-60
2024/01/25 06:48:06;;;;;;;2.50;1.15;;;8.00;99.90;;;;;;4402669;32;20085;-59
2024/01/25 06:50:31;;;;;;;1.02;0.50;;;8.00;99.90;;;;;;4393453;32;20092;-60
2024/01/25 06:52:57;;;;;;;0.20;0.20;;;8.00;99.90;;;;;;4390908;32;20096;-61
2024/01/25 06:55:22;;;;;;;3.25;0.43;;;8.00;99.90;;;;;;4391090;32;20089;-60
2024/01/25 06:57:49;;;;;;;0.62;0.62;;;8.00;99.90;;;;;;4380300;32;20081;-60
2024/01/25 07:00:15;;;;;;;0.70;0.70;;;8.10;99.90;;;;;;4358222;32;21526;-59
2024/01/25 07:02:42;;;;;;;1.10;1.00;;;8.10;99.90;;;;;;4366042;32;20125;-60
2024/01/25 07:05:08;;;;;;;1.75;0.73;;;8.00;99.90;;;;;;4359354;32;20086;-61
2024/01/25 07:07:34;;;;;;;5.12;1.62;;;8.10;99.90;;;;;;4354936;32;20381;-62
2024/01/25 07:09:59;;;;;;;0.50;0.50;;;8.10;99.90;;;;;;4371440;32;20110;-62
2024/01/25 07:12:25;;;;;;;0.88;0.82;;;8.00;99.90;;;;;;4360780;32;20085;-62
2024/01/25 07:14:50;;;;;;;0.20;0.20;;;8.00;99.90;;;;;;4382173;32;20463;-63
2024/01/25 07:17:16;;;;;;;22.40;0.80;;;8.00;99.90;;;;;;4376763;32;20561;-61
2024/01/25 07:19:41;;;;;;;0.62;0.62;;;8.00;99.90;;;;;;4390536;32;20065;-64
2024/01/25 07:22:07;;;;;;;2.15;1.35;;;8.00;99.90;;;;;;4379778;32;20077;-62
2024/01/25 07:24:33;;;;;;;0.28;0.28;;;8.00;99.90;;;;;;4361172;32;20093;-61
2024/01/25 07:26:58;;;;;;;0.98;0.50;;;8.00;99.90;;;;;;4380280;32;20904;-60
2024/01/25 07:29:24;;;;;;;3.40;1.48;;;8.00;99.90;;;;;;4372285;32;20112;-62
2024/01/25 07:31:50;;;;;;;7.60;1.20;;;8.00;99.90;;;;;;4373021;32;20573;-61
2024/01/25 07:34:15;;;;;;;0.40;0.40;;;8.00;99.90;;;;;;4379043;32;20078;-62
2024/01/25 07:36:41;;;;;;;1.42;0.40;;;8.00;99.90;;;;;;4372695;32;20690;-61
2024/01/25 07:39:06;;;;;;;3.08;1.37;;;8.10;99.90;;;;;;4374835;32;20085;-61
2024/01/25 07:41:32;;;;;;;2.65;1.70;;;8.10;99.90;;;;;;4375338;32;20399;-60
2024/01/25 07:43:57;;;;;;;4.03;1.23;;;8.10;99.90;;;;;;4360561;32;20549;-61
2024/01/25 07:46:24;;;;;;;2.83;1.37;;;8.10;99.90;;;;;;4357988;32;20214;-63
2024/01/25 07:48:50;;;;;;;1.35;0.40;;;8.00;99.90;;;;;;4369909;32;20110;-62
2024/01/25 07:51:15;;;;;;;7.07;1.83;;;8.00;99.90;;;;;;4376552;32;20161;-62
2024/01/25 07:53:41;;;;;;;4.97;2.20;;;8.00;99.90;;;;;;4372512;32;20114;-61
2024/01/25 07:56:08;;;;;;;1.48;0.93;;;8.00;99.90;;;;;;4377021;32;20089;-61
2024/01/25 07:58:35;;;;;;;3.25;1.30;;;8.00;99.90;;;;;;4372789;32;21509;-62
2024/01/25 08:01:04;;;;;;;0.85;0.80;;;8.00;99.90;;;;;;4371436;32;21834;-62
2024/01/25 08:03:30;;;;;;;1.40;0.88;;;8.10;99.90;;;;;;4382283;32;20700;-62
2024/01/25 08:05:55;;;;;;;0.50;0.50;;;8.00;99.90;;;;;;4384373;32;20281;-63
2024/01/25 08:08:21;;;;;;;0.20;0.20;;;8.00;99.90;;;;;;4387348;32;20487;-63
2024/01/25 08:10:47;;;;;;;0.40;0.40;;;8.10;99.90;;;;;;4386945;32;20797;-63
2024/01/25 08:13:13;;;;;;;0.65;0.65;;;8.10;99.90;;;;;;4367346;32;20180;-63
2024/01/25 08:15:38;;;;;;;1.37;1.00;;;8.10;99.90;;;;;;4362168;32;21148;-60
2024/01/25 08:18:04;;;;;;;1.37;0.90;;;8.10;99.90;;;;;;4380273;32;20506;-61
2024/01/25 08:20:30;;;;;;;0.35;0.35;;;8.10;99.90;;;;;;4388977;32;20540;-61
2024/01/25 08:22:56;;;;;;;0.57;0.57;;;8.10;99.90;;;;;;4367610;32;21027;-65
2024/01/25 08:25:21;;;;;;;1.12;1.05;;;8.20;99.90;;;;;;4375480;32;20330;-61
2024/01/25 08:27:47;;;;;;;0.50;0.50;;;8.10;99.90;;;;;;4378763;32;20965;-61
2024/01/25 08:30:13;;;;;;;0.88;0.82;;;8.20;99.90;;;;;;4371891;32;21081;-61
2024/01/25 08:32:38;;;;;;;1.25;1.05;;;8.10;99.90;;;;;;4377890;32;21605;-62
2024/01/25 08:35:04;;;;;;;3.83;1.95;;;8.10;99.90;;;;;;4382674;32;20141;-63
2024/01/25 08:37:30;;;;;;;0.95;0.80;;;8.10;99.90;;;;;;4376523;32;20159;-63
2024/01/25 08:39:55;;;;;;;5.20;1.37;;;8.10;99.90;;;;;;4387276;32;20341;-63
2024/01/25 08:42:21;;;;;;;0.28;0.28;;;8.10;99.90;;;;;;4387570;32;21881;-64
2024/01/25 08:44:50;;;;;;;3.95;0.95;;;8.10;99.90;;;;;;4396123;32;20908;-62
2024/01/25 08:47:17;;;;;;;0.40;0.40;;;8.10;99.90;;;;;;4385745;32;20286;-66
2024/01/25 08:49:43;;;;;;;5.05;1.23;;;8.10;99.90;;;;;;4362288;32;20092;-63
2024/01/25 08:52:09;;;;;;;4.95;0.68;;;8.10;99.90;;;;;;4366775;32;20401;-62
2024/01/25 08:54:36;;;;;;;7.80;1.67;;;8.10;99.90;;;;;;4381292;32;20105;-63
2024/01/25 08:57:03;;;;;;;0.30;0.30;;;8.20;99.90;;;;;;4364347;32;20498;-63
2024/01/25 08:59:30;;;;;;;5.60;2.15;;;8.20;99.90;;;;;;4370872;32;20142;-64
2024/01/25 09:01:56;;;;;;;0.65;0.65;;;8.20;99.90;;;;;;4378745;32;22159;-62
2024/01/25 09:04:21;;;;;;;0.32;0.25;;;8.20;99.90;;;;;;4386795;32;20816;-62
2024/01/25 09:06:47;;;;;;;7.25;1.80;;;8.20;99.90;;;;;;4383435;32;20224;-65
2024/01/25 09:09:13;;;;;;;2.67;1.45;;;8.20;99.90;;;;;;4385269;32;20105;-63
2024/01/25 09:11:38;;;;;;;2.08;0.90;;;8.20;99.90;;;;;;4390050;32;20074;-64
2024/01/25 09:14:04;;;;;;;0.37;0.37;;;8.20;99.90;;;;;;4380670;32;20101;-63
2024/01/25 09:16:30;;;;;;;8.32;1.65;;;8.20;99.90;;;;;;4380018;32;20903;-63
2024/01/25 09:18:55;;;;;;;0.80;0.52;;;8.20;99.90;;;;;;4378198;32;20199;-63
2024/01/25 09:21:21;;;;;;;0.20;0.20;;;8.30;99.90;;;;;;4375921;32;20443;-63
2024/01/25 09:23:46;;;;;;;0.82;0.82;;;8.20;99.90;;;;;;4379686;32;20090;-63
2024/01/25 09:26:12;;;;;;;0.68;0.60;;;8.30;99.90;;;;;;4365025;32;20896;-63
2024/01/25 09:28:38;;;;;;;0.52;0.50;;;8.30;99.90;;;;;;4383219;32;20568;-63
2024/01/25 09:31:04;;;;;;;2.20;0.98;;;8.30;99.90;;;;;;4371449;32;20453;-65
2024/01/25 09:33:29;;;;;;;0.30;0.30;;;8.30;99.90;;;;;;4361475;32;20805;-64
2024/01/25 09:35:56;;;;;;;8.20;0.62;;;8.30;99.90;;;;;;4380252;32;20106;-65
2024/01/25 09:38:22;;;;;;;0.30;0.30;;;8.30;99.90;;;;;;4387592;32;20096;-64
2024/01/25 09:40:49;;;;;;;0.65;0.65;;;8.30;99.90;;;;;;4373629;32;20065;-64
2024/01/25 09:43:14;;;;;;;3.50;1.05;;;8.40;99.90;;;;;;4376093;32;20093;-65
2024/01/25 09:45:41;;;;;;;1.37;1.12;;;8.30;99.90;;;;;;4388921;32;20122;-61
2024/01/25 09:48:07;;;;;;;3.05;0.65;;;8.40;99.90;;;;;;4379371;32;20093;-62
2024/01/25 09:50:33;;;;;;;1.55;1.37;;;8.40;99.90;;;;;;4381218;32;20831;-62
2024/01/25 09:53:00;;;;;;;0.30;0.30;;;8.30;99.90;;;;;;4367677;32;20825;-61
2024/01/25 09:55:26;;;;;;;0.30;0.30;;;8.40;99.90;;;;;;4386137;32;20081;-62
2024/01/25 09:57:56;;;;;;;0.70;0.70;;;8.40;99.90;;;;;;4390476;32;20162;-64
2024/01/25 10:00:22;;;;;;;0.30;0.30;;;8.30;99.90;;;;;;4370942;32;20087;-64
2024/01/25 10:02:50;;;;;;;3.90;1.20;;;8.40;99.90;;;;;;4383761;32;20801;-66
2024/01/25 10:05:16;;;;;;;2.62;0.60;;;8.40;99.90;;;;;;4385740;32;20313;-64
2024/01/25 10:07:43;;;;;;;4.03;1.40;;;8.40;99.90;;;;;;4386910;32;20097;-62
2024/01/25 10:10:10;;;;;;;0.50;0.50;;;8.40;99.90;;;;;;4381862;32;20557;-62
2024/01/25 10:12:37;;;;;;;2.92;1.55;;;8.30;99.90;;;;;;4373107;32;20074;-62
2024/01/25 10:15:04;;;;;;;1.25;0.50;;;8.40;99.90;;;;;;4390351;32;20085;-62
2024/01/25 10:17:30;;;;;;;0.93;0.65;;;8.40;99.90;;;;;;4391114;32;20649;-67
2024/01/25 10:19:56;;;;;;;0.30;0.30;;;8.40;99.90;;;;;;4385905;32;20110;-64
2024/01/25 10:22:22;;;;;;;0.25;0.25;;;8.40;99.90;;;;;;4380226;32;20413;-66
2024/01/25 10:24:50;;;;;;;1.23;1.12;;;8.50;99.90;;;;;;4372861;32;20093;-64
2024/01/25 10:27:16;;;;;;;2.83;0.82;;;8.60;99.90;;;;;;4382278;32;20583;-62
2024/01/25 10:29:42;;;;;;;0.37;0.37;;;8.60;99.90;;;;;;4384111;32;20097;-62
2024/01/25 10:32:09;;;;;;;3.40;1.50;;;8.60;99.90;;;;;;4382337;32;20109;-62
2024/01/25 10:34:36;;;;;;;0.75;0.75;;;8.60;99.90;;;;;;4388780;32;20506;-61
2024/01/25 10:37:06;;;;;;;4.40;1.65;;;8.60;99.90;;;;;;4375494;32;20068;-62
2024/01/25 10:39:32;;;;;;;0.43;0.43;;;8.50;99.90;;;;;;4392149;32;20120;-62
2024/01/25 10:41:59;;;;;;;0.55;0.55;;;8.50;99.90;;;;;;4384699;32;20231;-61
2024/01/25 10:44:25;;;;;;;1.75;1.62;;;8.50;99.90;;;;;;4397098;32;20132;-61
2024/01/25 10:46:51;;;;;;;15.80;0.52;;;8.60;99.90;;;;;;4380034;32;20348;-61
2024/01/25 10:49:18;;;;;;;5.22;2.17;;;8.60;99.90;;;;;;4385974;32;20725;-62
2024/01/25 10:51:44;;;;;;;0.50;0.50;;;8.60;99.90;;;;;;4390416;32;20073;-62
2024/01/25 10:54:11;;;;;;;15.23;0.50;;;8.60;99.90;;;;;;4369365;32;20101;-61
2024/01/25 10:56:40;;;;;;;0.60;0.60;;;8.70;99.90;;;;;;4372583;32;20103;-65
2024/01/25 10:59:06;;;;;;;5.68;1.33;;;8.70;99.90;;;;;;4370157;32;20069;-64
2024/01/25 11:01:33;;;;;;;3.20;1.65;;;8.70;99.90;;;;;;4389862;32;20061;-61
2024/01/25 11:03:59;;;;;;;10.60;0.60;;;8.70;99.90;;;;;;4384833;32;20070;-62
2024/01/25 11:06:27;;;;;;;1.75;0.88;;;8.80;99.90;;;;;;4388858;32;20094;-62
2024/01/25 11:09:05;;;;;;;5.70;2.12;;;8.70;99.90;;;;;;4380738;32;20194;-62
2024/01/25 11:11:31;;;;;;;0.30;0.30;;;8.70;99.90;;;;;;4375099;32;20114;-62
2024/01/25 11:13:59;;;;;;;1.05;0.95;;;8.70;99.90;;;;;;4371138;32;20070;-62
2024/01/25 11:16:34;;;;;;;3.60;1.23;;;8.80;99.90;;;;;;4387414;32;20159;-63
2024/01/25 11:19:07;;;;;;;0.62;0.62;;;8.80;99.90;;;;;;4384189;32;21883;-63
2024/01/25 11:21:43;;;;;;;3.17;1.83;;;8.80;99.90;;;;;;4377259;32;20061;-63
2024/01/25 11:24:14;;;;;;;1.70;0.95;;;8.80;99.90;;;;;;4377224;32;20155;-64
2024/01/25 11:26:40;;;;;;;0.20;0.20;;;8.70;99.90;;;;;;4397037;32;20633;-64
2024/01/25 11:29:06;;;;;;;1.40;0.80;;;8.70;99.90;;;;;;4405844;32;20085;-64
2024/01/25 11:31:31;;;;;;;0.88;0.82;;;8.70;99.90;;;;;;4403931;32;20169;-66
2024/01/25 11:33:58;;;;;;;4.57;0.95;;;8.70;99.90;;;;;;4395635;32;20490;-67
2024/01/25 11:36:25;;;;;;;21.65;0.68;;;8.70;99.90;;;;;;4401393;32;20169;-65
2024/01/25 11:38:50;;;;;;;1.40;0.77;;;8.80;99.90;;;;;;4400749;32;20093;-64
2024/01/25 11:41:16;;;;;;;0.20;0.20;;;8.90;99.90;;;;;;4400594;32;20125;-63
2024/01/25 11:43:41;;;;;;;15.02;1.10;;;9.10;99.90;;;;;;4386876;32;20569;-62
2024/01/25 11:46:07;;;;;;;5.22;1.17;;;9.20;99.90;;;;;;4404412;32;20111;-63
2024/01/25 11:48:33;;;;;;;1.45;1.23;;;9.20;99.90;;;;;;4400628;32;20443;-62
2024/01/25 11:51:00;;;;;;;2.12;0.95;;;9.20;99.90;;;;;;4402638;32;20085;-62
2024/01/25 11:53:25;;;;;;;6.07;0.80;;;9.20;99.90;;;;;;4374874;32;87390;-61
2024/01/25 11:55:51;;;;;;;0.70;0.70;;;9.20;99.90;;;;;;4394943;32;20884;-64
2024/01/25 11:58:17;;;;;;;0.43;0.43;;;9.20;99.90;;;;;;4396672;32;20124;-64
2024/01/25 12:00:43;;;;;;;9.60;1.55;;;9.30;99.90;;;;;;4401154;32;20140;-65
2024/01/25 12:03:10;;;;;;;2.72;0.80;;;9.20;99.90;;;;;;4398056;32;20389;-65
2024/01/25 12:05:36;;;;;;;3.85;1.25;;;9.20;99.90;;;;;;4396288;32;21396;-63
2024/01/25 12:08:07;;;;;;;1.17;0.80;;;9.30;99.90;;;;;;4393669;32;20092;-62
2024/01/25 12:10:33;;;;;;;0.52;0.35;;;9.40;99.90;;;;;;4400846;32;20131;-65
2024/01/25 12:12:58;;;;;;;0.37;0.37;;;9.50;99.90;;;;;;4396232;32;20070;-64
2024/01/25 12:15:24;;;;;;;0.57;0.57;;;9.60;99.90;;;;;;4403808;32;20089;-65
2024/01/25 12:17:49;;;;;;;0.30;0.30;;;9.70;99.90;;;;;;4397191;32;20447;-66
2024/01/25 12:20:16;;;;;;;0.30;0.30;;;9.60;99.90;;;;;;4393424;32;20097;-63
2024/01/25 12:22:43;;;;;;;4.15;0.88;;;9.50;99.90;;;;;;4400182;32;20771;-67
2024/01/25 12:25:10;;;;;;;0.85;0.75;;;9.40;99.90;;;;;;4393621;32;20855;-66
2024/01/25 12:27:37;;;;;;;4.20;1.58;;;9.40;99.90;;;;;;4396550;32;20639;-64
2024/01/25 12:30:03;;;;;;;1.52;0.75;;;9.50;99.90;;;;;;4401629;32;20076;-65
2024/01/25 12:32:29;;;;;;;3.30;0.80;;;9.50;99.90;;;;;;4400202;32;20118;-65
2024/01/25 12:34:56;;;;;;;0.30;0.30;;;9.40;99.90;;;;;;4401098;32;20766;-65
2024/01/25 12:37:22;;;;;;;21.00;0.90;;;9.30;99.90;;;;;;4384863;32;20105;-65
2024/01/25 12:39:48;;;;;;;8.73;2.30;;;9.30;99.90;;;;;;4397915;32;20090;-65
2024/01/25 12:42:13;;;;;;;2.42;1.02;;;9.30;99.90;;;;;;4382803;32;20753;-65
2024/01/25 12:44:39;;;;;;;1.25;0.75;;;9.40;99.90;;;;;;4400727;32;20252;-62
2024/01/25 12:47:07;;;;;;;1.87;0.82;;;9.30;99.90;;;;;;4389890;32;20113;-62
2024/01/25 12:49:33;;;;;;;0.40;0.40;;;9.30;99.90;;;;;;4403862;32;20996;-61